Time;durP1;ratioP1;P1;durP2;ratioP2;P2;SDS_P1;SDS_P2;PMS_P1;PMS_P2;Temp;Humidity;BMP_temperature;BMP_pressure;BME280_temperature;BME280_humidity;BME280_pressure;Samples;Min_cycle;Max_cycle;Signal;HPM_P1;HPM_P2
2022/11/02 00:01:00;;;;;;;9.20;3.13;;;;;;;;;;5176205;28;20503;-87
2022/11/02 00:03:30;;;;;;;4.97;2.63;;;;;;;;;;5192951;28;20017;-87
2022/11/02 00:06:01;;;;;;;3.00;2.70;;;;;;;;;;5193881;28;20021;-87
2022/11/02 00:08:31;;;;;;;5.77;3.33;;;;;;;;;;5175999;28;20809;-87
2022/11/02 00:11:01;;;;;;;4.43;3.43;;;;;;;;;;5192280;28;20257;-87
2022/11/02 00:13:31;;;;;;;10.50;4.65;;;;;;;;;;5192893;28;20279;-87
2022/11/02 00:16:03;;;;;;;9.02;3.45;;;;;;;;;;5176657;28;20025;-86
2022/11/02 00:18:34;;;;;;;4.07;2.97;;;;;;;;;;5174809;28;20018;-87
2022/11/02 00:21:04;;;;;;;3.92;2.80;;;;;;;;;;5192951;28;20014;-87
2022/11/02 00:23:35;;;;;;;7.82;4.22;;;;;;;;;;5192564;28;20098;-87
2022/11/02 00:26:05;;;;;;;3.42;3.15;;;;;;;;;;5193075;28;20139;-87
2022/11/02 00:28:35;;;;;;;5.30;3.25;;;;;;;;;;5193144;28;20102;-86
2022/11/02 00:31:06;;;;;;;10.23;3.33;;;;;;;;;;5192955;28;20382;-86
2022/11/02 00:33:36;;;;;;;3.13;2.90;;;;;;;;;;5191218;28;20121;-87
2022/11/02 00:36:06;;;;;;;3.90;3.57;;;;;;;;;;5175343;28;20476;-86
2022/11/02 00:38:36;;;;;;;5.30;3.38;;;;;;;;;;5193092;28;20376;-86
2022/11/02 00:41:07;;;;;;;20.77;3.00;;;;;;;;;;5193290;28;20361;-85
2022/11/02 00:43:37;;;;;;;2.08;1.98;;;;;;;;;;5192159;28;20021;-86
2022/11/02 00:46:07;;;;;;;2.63;2.08;;;;;;;;;;5194334;28;20045;-86
2022/11/02 00:48:38;;;;;;;12.23;4.93;;;;;;;;;;5195552;28;20028;-87
2022/11/02 00:51:08;;;;;;;6.45;3.28;;;;;;;;;;5211598;28;20264;-86
2022/11/02 00:53:38;;;;;;;9.90;3.50;;;;;;;;;;5212142;28;20021;-87
2022/11/02 00:56:08;;;;;;;8.18;3.75;;;;;;;;;;5213181;28;20268;-87
2022/11/02 00:58:39;;;;;;;5.93;3.20;;;;;;;;;;5213269;28;20087;-87
2022/11/02 01:01:10;;;;;;;3.47;2.92;;;;;;;;;;5213042;28;20057;-87
2022/11/02 01:03:40;;;;;;;3.90;2.90;;;;;;;;;;5194794;28;20177;-87
2022/11/02 01:06:12;;;;;;;3.95;3.75;;;;;;;;;;5194581;28;20350;-86
2022/11/02 01:08:42;;;;;;;9.50;3.30;;;;;;;;;;5212906;28;20026;-87
2022/11/02 01:11:14;;;;;;;3.05;2.78;;;;;;;;;;5212222;28;20524;-87
2022/11/02 01:13:45;;;;;;;4.88;2.42;;;;;;;;;;5212161;28;20013;-87
2022/11/02 01:16:15;;;;;;;2.42;2.33;;;;;;;;;;5212662;28;20472;-87
2022/11/02 01:18:45;;;;;;;3.95;3.55;;;;;;;;;;5212612;28;20025;-87
2022/11/02 01:21:15;;;;;;;4.97;3.30;;;;;;;;;;5210325;28;20416;-87
2022/11/02 01:23:46;;;;;;;3.30;3.10;;;;;;;;;;5194106;28;20028;-87
2022/11/02 01:26:16;;;;;;;2.42;2.33;;;;;;;;;;5194869;28;20706;-87
2022/11/02 01:28:46;;;;;;;7.95;3.97;;;;;;;;;;5212583;28;20021;-87
2022/11/02 01:31:16;;;;;;;6.43;3.03;;;;;;;;;;5212288;28;20101;-87
2022/11/02 01:33:47;;;;;;;8.48;2.97;;;;;;;;;;5194319;28;20467;-86
2022/11/02 01:36:20;;;;;;;10.23;3.42;;;;;;;;;;5194959;28;20032;-86
2022/11/02 01:38:51;;;;;;;4.10;3.50;;;;;;;;;;5212267;28;20060;-87
2022/11/02 01:41:21;;;;;;;6.53;2.15;;;;;;;;;;5194081;28;20022;-86
2022/11/02 01:43:53;;;;;;;9.13;4.63;;;;;;;;;;5193351;28;20468;-87
2022/11/02 01:46:29;;;;;;;5.10;3.42;;;;;;;;;;5212029;28;20052;-87
2022/11/02 01:49:02;;;;;;;5.63;4.07;;;;;;;;;;5194329;28;20395;-86
2022/11/02 01:51:35;;;;;;;7.00;3.22;;;;;;;;;;5214598;22;20045;-62
2022/11/02 01:54:08;;;;;;;5.85;3.70;;;;;;;;;;5178941;28;20429;-62
2022/11/02 01:56:39;;;;;;;5.05;4.22;;;;;;;;;;5167595;28;20120;-62
2022/11/02 01:59:11;;;;;;;9.35;3.75;;;;;;;;;;5167479;28;20022;-61
2022/11/02 02:01:42;;;;;;;5.88;3.50;;;;;;;;;;5166812;28;20075;-62
2022/11/02 02:04:13;;;;;;;9.23;3.55;;;;;;;;;;5166621;28;20469;-63
2022/11/02 02:06:44;;;;;;;10.05;4.72;;;;;;;;;;5166751;28;20037;-62
2022/11/02 02:09:14;;;;;;;2.88;2.67;;;;;;;;;;5166757;28;20108;-62
2022/11/02 02:11:45;;;;;;;7.38;3.05;;;;;;;;;;5166546;28;20453;-62
2022/11/02 02:14:16;;;;;;;8.82;2.90;;;;;;;;;;5166475;28;20053;-67
2022/11/02 02:16:56;;;;;;;5.25;2.92;;;;;;;;;;5166222;28;20090;-61
2022/11/02 02:19:26;;;;;;;11.57;5.35;;;;;;;;;;5184063;28;20360;-61
2022/11/02 02:22:21;;;;;;;3.53;2.45;;;;;;;;;;5184332;28;20038;-61
2022/11/02 02:25:04;;;;;;;9.75;4.30;;;;;;;;;;5166696;28;20014;-61
2022/11/02 02:27:53;;;;;;;5.97;2.35;;;;;;;;;;5166856;28;20557;-61
2022/11/02 02:30:23;;;;;;;4.57;4.25;;;;;;;;;;5183677;28;20037;-62
2022/11/02 02:33:00;;;;;;;4.72;3.63;;;;;;;;;;5166684;28;20478;-61
2022/11/02 02:35:39;;;;;;;3.22;2.92;;;;;;;;;;5166513;28;20018;-62
2022/11/02 02:38:16;;;;;;;7.75;3.22;;;;;;;;;;5166610;28;20036;-65
2022/11/02 02:40:51;;;;;;;7.18;4.00;;;;;;;;;;5183805;28;20022;-65
2022/11/02 02:43:26;;;;;;;5.95;3.95;;;;;;;;;;5166193;28;20018;-67
2022/11/02 02:46:06;;;;;;;7.93;3.67;;;;;;;;;;5166444;28;20053;-66
2022/11/02 02:48:37;;;;;;;4.78;3.70;;;;;;;;;;5166564;28;20014;-65
2022/11/02 02:51:17;;;;;;;9.65;4.85;;;;;;;;;;5165155;28;20087;-65
2022/11/02 02:53:57;;;;;;;6.28;4.85;;;;;;;;;;5184174;28;20536;-66
2022/11/02 02:56:29;;;;;;;6.72;3.00;;;;;;;;;;5183940;28;20018;-65
2022/11/02 02:59:01;;;;;;;7.93;4.30;;;;;;;;;;5166346;28;20457;-65
2022/11/02 03:01:32;;;;;;;6.57;2.70;;;;;;;;;;5166392;28;20049;-65
2022/11/02 03:04:04;;;;;;;8.20;3.90;;;;;;;;;;5183688;28;20018;-65
2022/11/02 03:06:35;;;;;;;10.82;4.10;;;;;;;;;;5184200;28;20022;-65
2022/11/02 03:09:14;;;;;;;7.43;3.17;;;;;;;;;;5184125;28;20359;-65
2022/11/02 03:11:50;;;;;;;6.13;4.30;;;;;;;;;;5166841;28;20022;-70
2022/11/02 03:14:26;;;;;;;11.90;4.85;;;;;;;;;;5166553;28;20018;-64
2022/11/02 03:17:14;;;;;;;6.13;3.70;;;;;;;;;;5167593;28;20057;-65
2022/11/02 03:19:44;;;;;;;13.40;3.88;;;;;;;;;;5167138;28;20020;-65
2022/11/02 03:22:17;;;;;;;7.93;4.25;;;;;;;;;;5166202;28;20109;-65
2022/11/02 03:24:59;;;;;;;5.53;4.20;;;;;;;;;;5165895;28;20041;-66
2022/11/02 03:27:32;;;;;;;8.95;3.55;;;;;;;;;;5166299;28;20501;-65
2022/11/02 03:30:03;;;;;;;6.13;4.20;;;;;;;;;;5165499;28;20018;-66
2022/11/02 03:32:48;;;;;;;7.70;5.65;;;;;;;;;;5165967;28;20037;-66
2022/11/02 03:35:32;;;;;;;4.47;3.50;;;;;;;;;;5168354;28;20121;-65
2022/11/02 03:38:10;;;;;;;5.65;3.17;;;;;;;;;;5169646;28;20481;-64
2022/11/02 03:40:42;;;;;;;8.95;5.47;;;;;;;;;;5169484;28;20014;-65
2022/11/02 03:43:13;;;;;;;5.57;4.00;;;;;;;;;;5169739;28;20405;-64
2022/11/02 03:45:49;;;;;;;12.80;3.33;;;;;;;;;;5170338;28;20076;-64
2022/11/02 03:48:20;;;;;;;17.08;4.28;;;;;;;;;;5170596;28;20113;-64
2022/11/02 03:50:51;;;;;;;6.82;6.25;;;;;;;;;;5187618;28;20028;-64
2022/11/02 03:53:29;;;;;;;4.30;3.15;;;;;;;;;;5170240;28;20033;-65
2022/11/02 03:56:02;;;;;;;5.68;3.70;;;;;;;;;;5187258;28;20454;-64
2022/11/02 03:58:34;;;;;;;7.10;4.13;;;;;;;;;;5169830;28;20473;-63
2022/11/02 04:01:07;;;;;;;17.85;4.22;;;;;;;;;;5169384;28;20017;-64
2022/11/02 04:03:39;;;;;;;12.27;4.30;;;;;;;;;;5169495;28;20106;-64
2022/11/02 04:06:13;;;;;;;8.50;4.30;;;;;;;;;;5187208;28;20030;-65
2022/11/02 04:08:47;;;;;;;12.15;4.18;;;;;;;;;;5187206;28;20030;-64
2022/11/02 04:19:45;;;;;;;5.18;4.70;;;;;;;;;;5155854;28;20080;-64
2022/11/02 04:25:15;;;;;;;9.63;4.60;;;;;;;;;;5185753;28;20110;-64
2022/11/02 04:27:49;;;;;;;4.88;3.42;;;;;;;;;;5168285;28;20025;-64
2022/11/02 04:30:21;;;;;;;4.30;3.90;;;;;;;;;;5168697;28;20517;-64
2022/11/02 04:35:40;;;;;;;5.78;3.88;;;;;;;;;;5186623;28;20044;-65
2022/11/02 04:43:48;;;;;;;9.88;4.60;;;;;;;;;;5186112;28;20084;-62
2022/11/02 04:46:19;;;;;;;4.68;4.03;;;;;;;;;;5168026;28;20439;-63
2022/11/02 04:48:50;;;;;;;10.48;4.57;;;;;;;;;;5168580;28;20083;-63
2022/11/02 04:51:20;;;;;;;4.53;3.90;;;;;;;;;;5167626;28;20034;-64
2022/11/02 04:53:51;;;;;;;8.50;3.75;;;;;;;;;;5168789;28;20026;-63
2022/11/02 04:56:22;;;;;;;21.33;5.38;;;;;;;;;;5168507;28;20116;-63
2022/11/02 04:58:57;;;;;;;8.55;4.25;;;;;;;;;;5167671;28;20303;-63
2022/11/02 05:01:28;;;;;;;5.75;3.95;;;;;;;;;;5168503;28;20028;-63
2022/11/02 05:03:58;;;;;;;7.43;2.95;;;;;;;;;;5168182;28;20363;-63
2022/11/02 05:06:28;;;;;;;6.03;4.50;;;;;;;;;;5168439;28;20029;-63
2022/11/02 05:08:59;;;;;;;12.00;4.53;;;;;;;;;;5168194;28;20109;-64
2022/11/02 05:11:29;;;;;;;9.50;4.40;;;;;;;;;;5184718;28;20013;-64
2022/11/02 05:13:59;;;;;;;8.00;4.93;;;;;;;;;;5167889;28;20108;-63
2022/11/02 05:16:29;;;;;;;10.75;4.00;;;;;;;;;;5167969;28;20489;-63
2022/11/02 05:19:00;;;;;;;8.93;4.00;;;;;;;;;;5168260;28;20018;-63
2022/11/02 05:21:30;;;;;;;8.50;5.18;;;;;;;;;;5167542;28;20145;-64
2022/11/02 05:24:00;;;;;;;8.82;4.43;;;;;;;;;;5167544;28;20431;-64
2022/11/02 05:26:31;;;;;;;3.30;3.00;;;;;;;;;;5185064;28;20080;-63
2022/11/02 05:29:01;;;;;;;6.10;3.17;;;;;;;;;;5168232;28;20118;-62
2022/11/02 05:31:31;;;;;;;13.93;4.88;;;;;;;;;;5167732;28;20117;-63
2022/11/02 05:34:02;;;;;;;9.40;4.18;;;;;;;;;;5167767;28;20022;-64
2022/11/02 05:36:32;;;;;;;10.30;4.60;;;;;;;;;;5167420;28;20034;-63
2022/11/02 05:39:02;;;;;;;5.18;3.47;;;;;;;;;;5184478;28;20018;-63
2022/11/02 05:41:33;;;;;;;8.30;5.93;;;;;;;;;;5168442;28;20045;-63
2022/11/02 05:44:03;;;;;;;12.68;4.80;;;;;;;;;;5167705;28;20030;-63
2022/11/02 05:46:33;;;;;;;8.30;4.45;;;;;;;;;;5185860;28;20041;-62
2022/11/02 05:49:04;;;;;;;5.90;4.60;;;;;;;;;;5166617;28;20022;-63
2022/11/02 05:51:34;;;;;;;9.30;4.97;;;;;;;;;;5167130;28;20088;-64
2022/11/02 05:54:04;;;;;;;4.25;3.95;;;;;;;;;;5167300;28;20026;-64
2022/11/02 05:56:34;;;;;;;13.30;4.45;;;;;;;;;;5167197;28;20172;-63
2022/11/02 05:59:05;;;;;;;9.95;4.72;;;;;;;;;;5167720;28;20014;-62
2022/11/02 06:01:35;;;;;;;8.20;4.15;;;;;;;;;;5167089;28;20014;-62
2022/11/02 06:04:05;;;;;;;7.40;5.38;;;;;;;;;;5166990;28;20085;-63
2022/11/02 06:06:36;;;;;;;7.78;3.53;;;;;;;;;;5168651;28;20061;-63
2022/11/02 06:09:06;;;;;;;7.80;5.40;;;;;;;;;;5188163;28;20254;-63
2022/11/02 06:11:36;;;;;;;6.00;3.83;;;;;;;;;;5186971;28;20036;-63
2022/11/02 06:14:07;;;;;;;4.47;4.05;;;;;;;;;;5186990;28;20493;-65
2022/11/02 06:16:37;;;;;;;7.78;4.28;;;;;;;;;;5187740;28;20024;-64
2022/11/02 06:19:07;;;;;;;6.40;3.72;;;;;;;;;;5187361;28;20024;-64
2022/11/02 06:21:37;;;;;;;5.07;4.35;;;;;;;;;;5186222;28;20030;-65
2022/11/02 06:24:08;;;;;;;9.55;4.18;;;;;;;;;;5172033;28;20109;-63
2022/11/02 06:26:38;;;;;;;7.95;3.45;;;;;;;;;;5166553;28;20022;-64
2022/11/02 06:29:08;;;;;;;3.55;3.33;;;;;;;;;;5166865;28;20033;-64
2022/11/02 06:31:39;;;;;;;8.00;7.50;;;;;;;;;;5166809;28;20026;-63
2022/11/02 06:34:09;;;;;;;5.25;3.92;;;;;;;;;;5165205;28;20029;-65
2022/11/02 06:36:39;;;;;;;15.68;5.45;;;;;;;;;;5166972;28;20021;-63
2022/11/02 06:39:10;;;;;;;10.90;5.65;;;;;;;;;;5184364;28;20429;-64
2022/11/02 06:41:40;;;;;;;3.35;3.15;;;;;;;;;;5166820;28;20120;-64
2022/11/02 06:44:10;;;;;;;5.85;4.00;;;;;;;;;;5184906;28;20018;-64
2022/11/02 06:46:40;;;;;;;14.05;4.95;;;;;;;;;;5167343;28;20089;-65
2022/11/02 06:49:11;;;;;;;5.15;4.40;;;;;;;;;;5167160;28;20085;-63
2022/11/02 06:51:41;;;;;;;5.63;4.75;;;;;;;;;;5166320;28;20030;-64
2022/11/02 06:54:11;;;;;;;11.85;4.82;;;;;;;;;;5164534;28;20033;-64
2022/11/02 06:56:42;;;;;;;15.80;5.82;;;;;;;;;;5166171;28;20490;-64
2022/11/02 06:59:12;;;;;;;13.27;6.93;;;;;;;;;;5167036;28;20014;-65
2022/11/02 07:01:42;;;;;;;6.63;4.18;;;;;;;;;;5166444;28;20014;-65
2022/11/02 07:04:13;;;;;;;4.07;3.40;;;;;;;;;;5166120;28;20133;-64
2022/11/02 07:06:43;;;;;;;5.95;5.00;;;;;;;;;;5166814;28;20346;-66
2022/11/02 07:09:13;;;;;;;10.63;5.18;;;;;;;;;;5167868;28;20013;-64
2022/11/02 07:11:43;;;;;;;9.02;4.97;;;;;;;;;;5170980;28;20042;-65
2022/11/02 07:14:14;;;;;;;13.10;5.18;;;;;;;;;;5170645;28;20014;-63
2022/11/02 07:16:44;;;;;;;6.28;4.78;;;;;;;;;;5170575;28;20171;-63
2022/11/02 07:19:14;;;;;;;11.82;4.55;;;;;;;;;;5170643;28;20338;-62
2022/11/02 07:21:45;;;;;;;15.77;2.88;;;;;;;;;;5170725;28;20037;-63
2022/11/02 07:24:15;;;;;;;5.72;4.50;;;;;;;;;;5170553;28;20024;-64
2022/11/02 07:26:49;;;;;;;14.20;4.47;;;;;;;;;;5170725;28;20481;-65
2022/11/02 07:29:19;;;;;;;5.70;5.00;;;;;;;;;;5170453;28;20033;-64
2022/11/02 07:31:49;;;;;;;4.22;3.80;;;;;;;;;;5169991;28;20018;-64
2022/11/02 07:34:20;;;;;;;10.38;4.43;;;;;;;;;;5170045;28;20022;-63
2022/11/02 07:36:50;;;;;;;12.30;5.05;;;;;;;;;;5170154;28;20018;-65
2022/11/02 07:39:20;;;;;;;8.88;5.20;;;;;;;;;;5169691;28;20390;-63
2022/11/02 07:41:50;;;;;;;6.97;4.38;;;;;;;;;;5169084;28;20026;-66
2022/11/02 07:44:21;;;;;;;4.20;3.80;;;;;;;;;;5182503;28;20025;-68
2022/11/02 07:46:51;;;;;;;5.38;3.67;;;;;;;;;;5190133;28;20473;-68
2022/11/02 07:49:21;;;;;;;8.93;4.47;;;;;;;;;;5190233;28;20017;-67
2022/11/02 07:51:52;;;;;;;13.85;4.40;;;;;;;;;;5207244;22;20510;-86
2022/11/02 07:54:22;;;;;;;18.33;4.78;;;;;;;;;;5215279;28;20026;-90
2022/11/02 07:56:53;;;;;;;10.70;3.55;;;;;;;;;;5192653;28;20025;-88
2022/11/02 07:59:23;;;;;;;11.18;5.03;;;;;;;;;;5199255;28;20073;-88
2022/11/02 08:01:53;;;;;;;13.70;5.32;;;;;;;;;;5216209;28;20464;-88
2022/11/02 08:04:23;;;;;;;6.10;4.53;;;;;;;;;;5216970;28;20463;-89
2022/11/02 08:06:57;;;;;;;4.53;4.13;;;;;;;;;;5199314;28;20391;-88
2022/11/02 08:09:27;;;;;;;9.57;6.15;;;;;;;;;;5199029;28;20021;-89
2022/11/02 08:11:57;;;;;;;21.75;6.10;;;;;;;;;;5198626;28;20124;-88
2022/11/02 08:14:27;;;;;;;7.10;3.58;;;;;;;;;;5198229;28;20021;-89
2022/11/02 08:16:58;;;;;;;12.68;4.45;;;;;;;;;;5197576;28;20483;-89
2022/11/02 08:19:29;;;;;;;10.05;4.18;;;;;;;;;;5215554;28;20022;-89
2022/11/02 08:21:59;;;;;;;16.27;5.22;;;;;;;;;;5197829;28;20130;-89
2022/11/02 08:24:30;;;;;;;8.65;4.85;;;;;;;;;;5197475;28;20049;-89
2022/11/02 08:27:00;;;;;;;7.18;6.40;;;;;;;;;;5215449;28;20024;-89
2022/11/02 08:29:30;;;;;;;8.35;4.47;;;;;;;;;;5197678;28;20021;-89
2022/11/02 08:32:01;;;;;;;14.52;4.53;;;;;;;;;;5197527;28;20034;-90
2022/11/02 08:34:31;;;;;;;15.93;5.25;;;;;;;;;;5184883;28;20089;-88
2022/11/02 08:37:01;;;;;;;11.90;5.47;;;;;;;;;;5177006;28;20028;-86
2022/11/02 08:39:32;;;;;;;8.05;5.35;;;;;;;;;;5189763;28;20018;-88
2022/11/02 08:42:02;;;;;;;9.65;4.53;;;;;;;;;;5199854;28;20428;-88
2022/11/02 08:44:32;;;;;;;7.07;6.00;;;;;;;;;;5211852;28;20024;-89
2022/11/02 08:47:02;;;;;;;13.97;6.30;;;;;;;;;;5197299;28;20446;-89
2022/11/02 08:49:33;;;;;;;15.93;5.45;;;;;;;;;;5193683;28;20265;-89
2022/11/02 08:52:03;;;;;;;8.10;5.15;;;;;;;;;;5176050;28;20038;-89
2022/11/02 08:54:34;;;;;;;18.13;4.88;;;;;;;;;;5176284;28;20014;-89
2022/11/02 08:57:04;;;;;;;8.00;4.57;;;;;;;;;;5194258;28;20018;-89
2022/11/02 08:59:34;;;;;;;16.60;4.60;;;;;;;;;;5176504;28;20097;-89
2022/11/02 09:02:04;;;;;;;16.42;6.55;;;;;;;;;;5176067;28;20022;-89
2022/11/02 09:04:35;;;;;;;17.88;4.15;;;;;;;;;;5175835;28;20476;-88
2022/11/02 09:07:05;;;;;;;15.15;6.10;;;;;;;;;;5193426;28;20018;-89
2022/11/02 09:09:35;;;;;;;9.88;4.80;;;;;;;;;;5176197;28;20018;-88
2022/11/02 09:12:05;;;;;;;20.45;5.22;;;;;;;;;;5193746;28;20049;-88
2022/11/02 09:14:36;;;;;;;10.23;5.07;;;;;;;;;;5176105;28;20028;-89
2022/11/02 09:17:06;;;;;;;10.35;4.97;;;;;;;;;;5176179;28;20021;-89
2022/11/02 09:19:36;;;;;;;18.17;5.90;;;;;;;;;;5175760;28;20014;-88
2022/11/02 09:22:06;;;;;;;9.23;4.78;;;;;;;;;;5193618;28;20348;-89
2022/11/02 09:24:37;;;;;;;11.60;5.55;;;;;;;;;;5175879;28;20046;-89
2022/11/02 09:27:07;;;;;;;11.00;5.38;;;;;;;;;;5175964;28;20024;-89
2022/11/02 09:29:37;;;;;;;15.55;4.72;;;;;;;;;;5175243;28;20022;-89
2022/11/02 09:32:07;;;;;;;6.82;5.50;;;;;;;;;;5192989;28;20595;-88
2022/11/02 09:34:38;;;;;;;6.00;4.68;;;;;;;;;;5193998;28;20071;-89
2022/11/02 09:37:09;;;;;;;9.25;5.00;;;;;;;;;;5176572;28;20053;-89
2022/11/02 09:39:39;;;;;;;7.10;4.93;;;;;;;;;;5193988;28;20550;-89
2022/11/02 09:42:22;;;;;;;17.60;7.13;;;;;;;;;;5175017;28;20284;-88
2022/11/02 09:44:57;;;;;;;11.13;5.38;;;;;;;;;;5175522;28;20272;-85
2022/11/02 09:47:29;;;;;;;6.30;3.90;;;;;;;;;;5193401;28;20028;-87
2022/11/02 09:50:01;;;;;;;10.48;6.18;;;;;;;;;;5194940;28;20088;-86
2022/11/02 09:52:34;;;;;;;14.18;4.70;;;;;;;;;;5193191;28;20129;-86
2022/11/02 09:55:09;;;;;;;17.00;5.10;;;;;;;;;;5174904;28;20037;-86
2022/11/02 09:57:42;;;;;;;7.40;5.10;;;;;;;;;;5175448;28;20080;-86
2022/11/02 10:00:13;;;;;;;7.93;4.40;;;;;;;;;;5175412;28;20014;-86
2022/11/02 10:03:03;;;;;;;13.20;6.45;;;;;;;;;;5174858;28;20025;-86
2022/11/02 10:05:43;;;;;;;9.18;3.83;;;;;;;;;;5191886;28;20025;-86
2022/11/02 10:08:13;;;;;;;12.23;4.53;;;;;;;;;;5175114;28;20044;-88
2022/11/02 10:11:02;;;;;;;16.35;5.43;;;;;;;;;;5178319;28;20030;-87
2022/11/02 10:13:51;;;;;;;6.25;3.63;;;;;;;;;;5208630;28;20014;-86
2022/11/02 10:16:29;;;;;;;9.20;5.77;;;;;;;;;;5191993;28;20037;-85
2022/11/02 10:19:01;;;;;;;6.30;4.07;;;;;;;;;;5209906;28;20288;-86
2022/11/02 10:21:32;;;;;;;11.10;3.75;;;;;;;;;;5209095;28;20013;-86
2022/11/02 10:24:21;;;;;;;14.02;5.20;;;;;;;;;;5205851;28;20143;-85
2022/11/02 10:27:03;;;;;;;11.98;4.70;;;;;;;;;;5204141;28;20025;-87
2022/11/02 10:29:34;;;;;;;5.68;4.35;;;;;;;;;;5186814;28;20093;-86
2022/11/02 10:32:04;;;;;;;16.10;4.32;;;;;;;;;;5203887;28;20006;-87
2022/11/02 10:34:34;;;;;;;9.50;4.07;;;;;;;;;;5199771;28;20037;-86
2022/11/02 10:37:13;;;;;;;4.70;4.28;;;;;;;;;;5196604;28;20026;-87
2022/11/02 10:39:43;;;;;;;10.23;5.80;;;;;;;;;;5194453;28;20049;-87
2022/11/02 10:42:20;;;;;;;7.57;4.82;;;;;;;;;;5194687;28;20018;-85
2022/11/02 10:44:56;;;;;;;8.88;4.90;;;;;;;;;;5197455;28;20081;-87
2022/11/02 10:47:29;;;;;;;11.13;4.65;;;;;;;;;;5180240;28;20641;-87
2022/11/02 10:50:25;;;;;;;7.38;3.28;;;;;;;;;;5198755;28;20026;-87
2022/11/02 10:52:58;;;;;;;14.52;4.32;;;;;;;;;;5210205;28;20049;-87
2022/11/02 10:55:38;;;;;;;7.03;3.92;;;;;;;;;;5201005;28;20027;-88
2022/11/02 10:58:11;;;;;;;14.55;6.85;;;;;;;;;;5219188;28;20025;-87
2022/11/02 11:00:42;;;;;;;6.53;3.33;;;;;;;;;;5201189;28;20021;-86
2022/11/02 11:03:13;;;;;;;12.65;4.22;;;;;;;;;;5200851;28;20391;-88
2022/11/02 11:05:50;;;;;;;10.27;4.55;;;;;;;;;;5200679;28;20018;-88
2022/11/02 11:08:33;;;;;;;7.53;3.45;;;;;;;;;;5201625;28;20083;-87
2022/11/02 11:11:18;;;;;;;9.07;4.05;;;;;;;;;;5204556;28;20021;-88
2022/11/02 11:14:07;;;;;;;6.47;4.47;;;;;;;;;;5221420;28;20036;-87
2022/11/02 11:16:39;;;;;;;10.93;4.07;;;;;;;;;;5221795;28;20024;-87
2022/11/02 11:19:36;;;;;;;11.45;5.15;;;;;;;;;;5218797;28;20018;-89
2022/11/02 11:22:39;;;;;;;12.75;5.95;;;;;;;;;;5180278;28;20036;-88
2022/11/02 11:25:09;;;;;;;10.35;4.82;;;;;;;;;;5173913;28;20034;-88
2022/11/02 11:27:55;;;;;;;12.57;4.67;;;;;;;;;;5202310;28;20036;-88
2022/11/02 11:30:32;;;;;;;6.13;4.10;;;;;;;;;;5200578;28;20287;-88
2022/11/02 11:33:04;;;;;;;11.35;5.18;;;;;;;;;;5202629;28;20093;-88
2022/11/02 11:35:38;;;;;;;13.07;3.92;;;;;;;;;;5217963;28;20084;-88
2022/11/02 11:38:19;;;;;;;10.82;4.22;;;;;;;;;;5200339;28;20034;-88
2022/11/02 11:40:54;;;;;;;7.72;5.35;;;;;;;;;;5201591;28;20497;-88
2022/11/02 11:43:29;;;;;;;16.63;4.18;;;;;;;;;;5200266;28;20029;-88
2022/11/02 11:46:00;;;;;;;9.95;3.60;;;;;;;;;;5200058;28;20128;-89
2022/11/02 11:48:39;;;;;;;16.00;3.95;;;;;;;;;;5200304;28;20375;-89
2022/11/02 11:51:18;;;;;;;15.73;4.82;;;;;;;;;;5217994;28;20065;-89
2022/11/02 11:54:07;;;;;;;7.38;3.55;;;;;;;;;;5209807;28;20030;-88
2022/11/02 11:56:38;;;;;;;6.70;3.47;;;;;;;;;;5196920;28;20026;-88
2022/11/02 11:59:28;;;;;;;13.70;4.70;;;;;;;;;;5180534;28;20037;-88
2022/11/02 12:02:00;;;;;;;5.15;3.63;;;;;;;;;;5198620;28;20021;-87
2022/11/02 12:04:34;;;;;;;6.50;3.65;;;;;;;;;;5180940;28;20068;-88
2022/11/02 12:07:14;;;;;;;8.85;3.08;;;;;;;;;;5181253;28;20018;-88
2022/11/02 12:09:59;;;;;;;10.25;4.68;;;;;;;;;;5185180;28;20026;-88
2022/11/02 12:12:49;;;;;;;7.70;4.38;;;;;;;;;;5185221;28;20061;-88
2022/11/02 12:15:42;;;;;;;10.40;4.82;;;;;;;;;;5198898;28;20091;-89
2022/11/02 12:18:15;;;;;;;8.65;3.42;;;;;;;;;;5198713;28;20026;-88
2022/11/02 12:21:04;;;;;;;6.55;4.07;;;;;;;;;;5181129;28;20022;-89
2022/11/02 12:23:40;;;;;;;10.20;3.22;;;;;;;;;;5181259;28;20022;-88
2022/11/02 12:26:34;;;;;;;5.93;3.72;;;;;;;;;;5181006;28;20099;-88
2022/11/02 12:29:29;;;;;;;6.18;3.67;;;;;;;;;;5174743;28;20041;-85
2022/11/02 12:32:02;;;;;;;6.65;3.78;;;;;;;;;;5198184;28;20052;-86
2022/11/02 12:34:58;;;;;;;7.97;5.03;;;;;;;;;;5180023;28;20018;-88
2022/11/02 12:37:44;;;;;;;7.70;4.68;;;;;;;;;;5180222;28;20045;-88
2022/11/02 12:40:33;;;;;;;17.30;5.10;;;;;;;;;;5198169;28;20097;-88
2022/11/02 12:43:18;;;;;;;11.05;2.92;;;;;;;;;;5180040;28;20022;-88
2022/11/02 12:45:54;;;;;;;11.15;6.00;;;;;;;;;;5197801;28;20024;-88
2022/11/02 12:48:33;;;;;;;8.60;6.13;;;;;;;;;;5197774;28;20048;-87
2022/11/02 12:51:06;;;;;;;10.98;5.05;;;;;;;;;;5198275;28;20369;-89
2022/11/02 12:53:43;;;;;;;9.38;3.70;;;;;;;;;;5198610;28;20034;-91
2022/11/02 12:56:19;;;;;;;10.30;4.45;;;;;;;;;;5180743;28;20028;-89
2022/11/02 12:58:50;;;;;;;13.50;3.65;;;;;;;;;;5180960;28;20022;-84
2022/11/02 13:01:23;;;;;;;19.10;7.28;;;;;;;;;;5197703;28;20472;-88
2022/11/02 13:03:59;;;;;;;5.28;3.83;;;;;;;;;;5180866;28;20110;-89
2022/11/02 13:06:35;;;;;;;5.95;3.95;;;;;;;;;;5179288;28;20014;-88
2022/11/02 13:09:11;;;;;;;8.95;5.03;;;;;;;;;;5180973;28;20037;-89
2022/11/02 13:11:43;;;;;;;6.25;4.80;;;;;;;;;;5178004;28;20284;-89
2022/11/02 13:14:17;;;;;;;13.10;4.97;;;;;;;;;;5159501;28;20111;-89
2022/11/02 13:16:53;;;;;;;7.03;4.25;;;;;;;;;;5159935;28;20019;-89
2022/11/02 13:19:35;;;;;;;9.10;4.00;;;;;;;;;;5159730;28;20026;-84
2022/11/02 13:22:08;;;;;;;10.57;3.65;;;;;;;;;;5159689;28;20014;-88
2022/11/02 13:24:42;;;;;;;5.72;4.07;;;;;;;;;;5160194;28;20078;-88
2022/11/02 13:27:28;;;;;;;4.82;4.35;;;;;;;;;;5161869;28;20022;-88
2022/11/02 13:30:01;;;;;;;7.65;3.38;;;;;;;;;;5162674;28;20064;-88
2022/11/02 13:32:39;;;;;;;3.90;3.15;;;;;;;;;;5162101;28;20033;-88
2022/11/02 13:35:15;;;;;;;13.63;4.63;;;;;;;;;;5179805;28;20057;-88
2022/11/02 13:37:48;;;;;;;5.63;2.88;;;;;;;;;;5180758;28;20048;-89
2022/11/02 13:40:42;;;;;;;10.90;4.57;;;;;;;;;;5163507;28;20022;-89
2022/11/02 13:43:12;;;;;;;6.25;5.25;;;;;;;;;;5152761;28;20050;-89
2022/11/02 13:45:58;;;;;;;4.78;3.25;;;;;;;;;;5164083;28;20030;-88
2022/11/02 13:48:47;;;;;;;4.32;3.15;;;;;;;;;;5163206;28;20037;-88
2022/11/02 13:51:26;;;;;;;4.18;3.65;;;;;;;;;;5205005;23;20440;-80
2022/11/02 13:54:01;;;;;;;3.67;3.38;;;;;;;;;;5190376;28;20380;-81
2022/11/02 13:56:35;;;;;;;15.75;4.95;;;;;;;;;;5192283;28;20025;-79
2022/11/02 13:59:16;;;;;;;7.75;4.47;;;;;;;;;;5194598;28;20021;-79
2022/11/02 14:01:47;;;;;;;12.57;5.03;;;;;;;;;;5198557;28;20021;-78
2022/11/02 14:04:17;;;;;;;5.25;3.60;;;;;;;;;;5192269;28;20022;-79
2022/11/02 14:06:54;;;;;;;9.07;5.50;;;;;;;;;;5189366;28;20080;-80
2022/11/02 14:09:35;;;;;;;10.13;6.13;;;;;;;;;;5209576;28;20022;-81
2022/11/02 14:12:24;;;;;;;9.73;3.17;;;;;;;;;;5209168;28;20486;-79
2022/11/02 14:15:13;;;;;;;8.95;4.07;;;;;;;;;;5207280;28;20506;-77
2022/11/02 14:17:52;;;;;;;8.57;3.42;;;;;;;;;;5210744;28;20491;-78
2022/11/02 14:20:34;;;;;;;4.65;4.20;;;;;;;;;;5209905;28;20490;-78
2022/11/02 14:23:25;;;;;;;10.90;4.55;;;;;;;;;;5211063;28;20282;-79
2022/11/02 14:25:57;;;;;;;7.07;3.30;;;;;;;;;;5210765;28;20230;-78
2022/11/02 14:28:30;;;;;;;4.68;4.28;;;;;;;;;;5211455;28;20403;-79
2022/11/02 14:31:01;;;;;;;3.92;2.75;;;;;;;;;;5210345;28;20017;-78
2022/11/02 14:33:49;;;;;;;3.72;2.90;;;;;;;;;;5208411;28;20041;-79
2022/11/02 14:36:32;;;;;;;5.40;4.47;;;;;;;;;;5209928;28;20359;-80
2022/11/02 14:39:02;;;;;;;6.15;4.05;;;;;;;;;;5211766;28;20591;-79
2022/11/02 14:42:05;;;;;;;11.40;4.30;;;;;;;;;;5208900;28;20087;-80
2022/11/02 14:44:35;;;;;;;6.68;3.22;;;;;;;;;;5180421;28;20272;-77
2022/11/02 14:47:09;;;;;;;5.43;3.60;;;;;;;;;;5216145;28;20091;-78
2022/11/02 14:49:55;;;;;;;4.25;3.17;;;;;;;;;;5218113;28;20017;-78
2022/11/02 14:52:34;;;;;;;3.70;3.35;;;;;;;;;;5221364;28;20045;-78
2022/11/02 14:55:08;;;;;;;13.63;4.90;;;;;;;;;;5219432;28;20025;-78
2022/11/02 14:57:39;;;;;;;2.15;2.15;;;;;;;;;;5211813;28;20355;-79
2022/11/02 15:00:16;;;;;;;7.03;3.28;;;;;;;;;;5217551;28;20025;-79
2022/11/02 15:02:47;;;;;;;3.58;2.95;;;;;;;;;;5224102;28;20052;-79
2022/11/02 15:05:22;;;;;;;8.18;4.35;;;;;;;;;;5223831;28;20014;-78
2022/11/02 15:07:52;;;;;;;10.45;3.42;;;;;;;;;;5224791;28;20573;-79
2022/11/02 15:10:34;;;;;;;6.33;3.00;;;;;;;;;;5227111;28;20021;-80
2022/11/02 15:13:19;;;;;;;6.85;2.90;;;;;;;;;;5226370;28;20292;-79
2022/11/02 15:15:50;;;;;;;4.07;3.78;;;;;;;;;;5223983;28;20040;-78
2022/11/02 15:18:38;;;;;;;6.03;4.07;;;;;;;;;;5212781;28;20073;-78
2022/11/02 15:21:16;;;;;;;5.88;3.03;;;;;;;;;;5204947;28;20018;-78
2022/11/02 15:23:49;;;;;;;4.18;3.20;;;;;;;;;;5203284;28;20022;-78
2022/11/02 15:26:41;;;;;;;5.32;3.03;;;;;;;;;;5200531;28;20094;-79
2022/11/02 15:29:35;;;;;;;5.30;3.13;;;;;;;;;;5191219;28;20053;-77
2022/11/02 15:32:09;;;;;;;4.32;3.10;;;;;;;;;;5208468;28;20041;-81
2022/11/02 15:34:44;;;;;;;4.25;3.38;;;;;;;;;;5226206;28;20017;-81
2022/11/02 15:37:19;;;;;;;5.25;3.17;;;;;;;;;;5228833;28;20034;-79
2022/11/02 15:39:53;;;;;;;7.82;3.72;;;;;;;;;;5229079;28;20143;-79